sensor_id;sensor_type;location;lat;lon;timestamp;pressure;altitude;pressure_sealevel;temperature;humidity
79461;BME280;68929;42.666;23.324;2023-08-06T00:00:12;93464.63;;;20.36;nan
79461;BME280;68929;42.666;23.324;2023-08-06T00:02:37;93420.41;;;20.34;nan
79461;BME280;68929;42.666;23.324;2023-08-06T00:05:03;93461.09;;;20.85;nan
79461;BME280;68929;42.666;23.324;2023-08-06T00:07:28;93495.06;;;21.03;nan
79461;BME280;68929;42.666;23.324;2023-08-06T00:09:54;93495.38;;;20.66;nan
79461;BME280;68929;42.666;23.324;2023-08-06T00:12:19;93483.66;;;20.62;nan
79461;BME280;68929;42.666;23.324;2023-08-06T00:14:45;93467.78;;;20.52;nan
79461;BME280;68929;42.666;23.324;2023-08-06T00:17:10;93464.13;;;20.70;nan
79461;BME280;68929;42.666;23.324;2023-08-06T00:19:35;93424.88;;;20.83;nan
79461;BME280;68929;42.666;23.324;2023-08-06T00:22:01;93444.22;;;21.15;nan
79461;BME280;68929;42.666;23.324;2023-08-06T00:24:27;93457.28;;;21.30;nan
79461;BME280;68929;42.666;23.324;2023-08-06T00:26:52;93453.94;;;21.25;nan
79461;BME280;68929;42.666;23.324;2023-08-06T00:29:18;93453.50;;;21.31;nan
79461;BME280;68929;42.666;23.324;2023-08-06T00:31:43;93442.81;;;21.40;nan
79461;BME280;68929;42.666;23.324;2023-08-06T00:34:08;93440.06;;;21.31;nan
79461;BME280;68929;42.666;23.324;2023-08-06T00:36:34;93424.59;;;21.37;nan
79461;BME280;68929;42.666;23.324;2023-08-06T00:38:59;93432.88;;;21.49;nan
79461;BME280;68929;42.666;23.324;2023-08-06T00:41:26;93454.38;;;21.80;nan
79461;BME280;68929;42.666;23.324;2023-08-06T00:43:51;93437.63;;;21.83;nan
79461;BME280;68929;42.666;23.324;2023-08-06T00:46:17;93437.34;;;21.93;nan
79461;BME280;68929;42.666;23.324;2023-08-06T00:48:42;93420.25;;;21.97;nan
79461;BME280;68929;42.666;23.324;2023-08-06T00:51:10;93433.88;;;22.01;nan
79461;BME280;68929;42.666;23.324;2023-08-06T00:53:37;93436.72;;;21.96;nan
79461;BME280;68929;42.666;23.324;2023-08-06T00:56:04;93416.00;;;21.96;nan
79461;BME280;68929;42.666;23.324;2023-08-06T00:58:29;93426.66;;;22.27;nan
79461;BME280;68929;42.666;23.324;2023-08-06T01:00:55;93414.28;;;22.26;nan
79461;BME280;68929;42.666;23.324;2023-08-06T01:03:20;93426.16;;;22.25;nan
79461;BME280;68929;42.666;23.324;2023-08-06T01:05:46;93407.91;;;21.88;nan
79461;BME280;68929;42.666;23.324;2023-08-06T01:13:42;93393.81;;;21.99;nan
79461;BME280;68929;42.666;23.324;2023-08-06T01:16:09;93386.69;;;21.95;nan
79461;BME280;68929;42.666;23.324;2023-08-06T01:18:36;93402.22;;;21.98;nan
79461;BME280;68929;42.666;23.324;2023-08-06T01:21:04;93401.88;;;21.91;nan
79461;BME280;68929;42.666;23.324;2023-08-06T01:23:29;93393.00;;;21.82;nan
79461;BME280;68929;42.666;23.324;2023-08-06T01:26:06;93391.94;;;21.52;nan
79461;BME280;68929;42.666;23.324;2023-08-06T01:28:49;93388.56;;;21.46;nan
79461;BME280;68929;42.666;23.324;2023-08-06T01:31:27;93391.69;;;21.71;nan
79461;BME280;68929;42.666;23.324;2023-08-06T01:33:56;93380.03;;;21.44;nan
79461;BME280;68929;42.666;23.324;2023-08-06T01:36:23;93365.59;;;21.23;nan
79461;BME280;68929;42.666;23.324;2023-08-06T01:38:51;93359.88;;;20.94;nan
79461;BME280;68929;42.666;23.324;2023-08-06T01:41:18;93359.19;;;20.89;nan
79461;BME280;68929;42.666;23.324;2023-08-06T01:43:43;93369.47;;;21.17;nan
79461;BME280;68929;42.666;23.324;2023-08-06T01:46:09;93383.63;;;21.31;nan
79461;BME280;68929;42.666;23.324;2023-08-06T01:48:34;93371.31;;;21.39;nan
79461;BME280;68929;42.666;23.324;2023-08-06T01:51:00;93353.63;;;21.46;nan
79461;BME280;68929;42.666;23.324;2023-08-06T01:53:25;93353.81;;;21.50;nan
79461;BME280;68929;42.666;23.324;2023-08-06T01:55:51;93385.38;;;21.05;nan
79461;BME280;68929;42.666;23.324;2023-08-06T01:58:16;93377.47;;;20.56;nan
79461;BME280;68929;42.666;23.324;2023-08-06T02:00:42;93372.94;;;20.87;nan
79461;BME280;68929;42.666;23.324;2023-08-06T02:03:07;93361.13;;;20.66;nan
79461;BME280;68929;42.666;23.324;2023-08-06T02:05:33;93353.44;;;20.29;nan
79461;BME280;68929;42.666;23.324;2023-08-06T02:07:58;93347.81;;;20.39;nan
79461;BME280;68929;42.666;23.324;2023-08-06T02:10:23;93348.59;;;20.61;nan
79461;BME280;68929;42.666;23.324;2023-08-06T02:12:49;93340.06;;;20.59;nan
79461;BME280;68929;42.666;23.324;2023-08-06T02:15:14;93347.31;;;20.81;nan
79461;BME280;68929;42.666;23.324;2023-08-06T02:17:40;93361.75;;;20.63;nan
79461;BME280;68929;42.666;23.324;2023-08-06T02:20:06;93382.44;;;20.93;nan
79461;BME280;68929;42.666;23.324;2023-08-06T02:22:31;93393.66;;;20.64;nan
79461;BME280;68929;42.666;23.324;2023-08-06T02:24:56;93391.44;;;20.09;nan
79461;BME280;68929;42.666;23.324;2023-08-06T02:27:22;93404.91;;;20.17;nan
79461;BME280;68929;42.666;23.324;2023-08-06T02:29:47;93358.59;;;19.89;nan
79461;BME280;68929;42.666;23.324;2023-08-06T02:32:13;93370.91;;;19.09;nan
79461;BME280;68929;42.666;23.324;2023-08-06T02:34:38;93360.41;;;18.99;nan
79461;BME280;68929;42.666;23.324;2023-08-06T02:37:04;93383.03;;;19.20;nan
79461;BME280;68929;42.666;23.324;2023-08-06T02:39:29;93404.25;;;19.03;nan
79461;BME280;68929;42.666;23.324;2023-08-06T02:41:55;93417.75;;;18.98;nan
79461;BME280;68929;42.666;23.324;2023-08-06T02:44:20;93431.94;;;19.12;nan
79461;BME280;68929;42.666;23.324;2023-08-06T02:46:45;93399.31;;;19.10;nan
79461;BME280;68929;42.666;23.324;2023-08-06T02:49:11;93388.81;;;19.27;nan
79461;BME280;68929;42.666;23.324;2023-08-06T02:51:36;93387.63;;;19.60;nan
79461;BME280;68929;42.666;23.324;2023-08-06T02:54:01;93343.28;;;19.54;nan
79461;BME280;68929;42.666;23.324;2023-08-06T02:56:27;93346.94;;;19.58;nan
79461;BME280;68929;42.666;23.324;2023-08-06T02:58:52;93350.06;;;19.74;nan
79461;BME280;68929;42.666;23.324;2023-08-06T03:01:18;93320.31;;;19.75;nan
79461;BME280;68929;42.666;23.324;2023-08-06T03:03:43;93362.47;;;20.33;nan
79461;BME280;68929;42.666;23.324;2023-08-06T03:06:08;93360.88;;;20.32;nan
79461;BME280;68929;42.666;23.324;2023-08-06T03:08:34;93312.69;;;20.49;nan
79461;BME280;68929;42.666;23.324;2023-08-06T03:10:59;93292.19;;;20.53;nan
79461;BME280;68929;42.666;23.324;2023-08-06T03:13:25;93323.41;;;20.49;nan
79461;BME280;68929;42.666;23.324;2023-08-06T03:15:58;93374.63;;;20.52;nan
79461;BME280;68929;42.666;23.324;2023-08-06T03:18:24;93359.19;;;20.58;nan
79461;BME280;68929;42.666;23.324;2023-08-06T03:20:51;93310.97;;;20.53;nan
79461;BME280;68929;42.666;23.324;2023-08-06T03:23:17;93303.16;;;20.65;nan
79461;BME280;68929;42.666;23.324;2023-08-06T03:25:43;93304.13;;;20.69;nan
79461;BME280;68929;42.666;23.324;2023-08-06T03:28:09;93332.00;;;20.59;nan
79461;BME280;68929;42.666;23.324;2023-08-06T03:30:34;93352.47;;;20.47;nan
79461;BME280;68929;42.666;23.324;2023-08-06T03:33:00;93373.28;;;20.41;nan
79461;BME280;68929;42.666;23.324;2023-08-06T03:35:25;93387.00;;;20.40;nan
79461;BME280;68929;42.666;23.324;2023-08-06T03:37:51;93379.38;;;20.33;nan
79461;BME280;68929;42.666;23.324;2023-08-06T03:40:16;93368.94;;;20.54;nan
79461;BME280;68929;42.666;23.324;2023-08-06T03:42:41;93357.69;;;20.74;nan
79461;BME280;68929;42.666;23.324;2023-08-06T03:45:07;93385.47;;;20.92;nan
79461;BME280;68929;42.666;23.324;2023-08-06T03:47:37;93365.38;;;20.89;nan
79461;BME280;68929;42.666;23.324;2023-08-06T03:50:03;93357.97;;;20.95;nan
79461;BME280;68929;42.666;23.324;2023-08-06T03:52:29;93377.44;;;21.00;nan
79461;BME280;68929;42.666;23.324;2023-08-06T03:54:54;93390.00;;;21.05;nan
79461;BME280;68929;42.666;23.324;2023-08-06T03:57:22;93372.16;;;21.17;nan
79461;BME280;68929;42.666;23.324;2023-08-06T03:59:48;93395.69;;;21.42;nan
79461;BME280;68929;42.666;23.324;2023-08-06T04:02:13;93403.69;;;21.65;nan
79461;BME280;68929;42.666;23.324;2023-08-06T04:04:38;93410.03;;;21.69;nan
79461;BME280;68929;42.666;23.324;2023-08-06T04:07:04;93405.53;;;21.16;nan
79461;BME280;68929;42.666;23.324;2023-08-06T04:09:29;93410.81;;;20.77;nan
79461;BME280;68929;42.666;23.324;2023-08-06T04:11:55;93415.44;;;21.07;nan
79461;BME280;68929;42.666;23.324;2023-08-06T04:14:21;93397.78;;;21.15;nan
79461;BME280;68929;42.666;23.324;2023-08-06T04:16:46;93401.75;;;21.57;nan
79461;BME280;68929;42.666;23.324;2023-08-06T04:19:12;93395.53;;;21.87;nan
79461;BME280;68929;42.666;23.324;2023-08-06T04:21:38;93409.88;;;21.74;nan
79461;BME280;68929;42.666;23.324;2023-08-06T04:24:03;93379.88;;;21.89;nan
79461;BME280;68929;42.666;23.324;2023-08-06T04:26:29;93386.69;;;21.95;nan
79461;BME280;68929;42.666;23.324;2023-08-06T04:28:54;93397.75;;;21.85;nan
79461;BME280;68929;42.666;23.324;2023-08-06T04:31:21;93383.53;;;21.93;nan
79461;BME280;68929;42.666;23.324;2023-08-06T04:33:46;93401.41;;;21.97;nan
79461;BME280;68929;42.666;23.324;2023-08-06T04:36:12;93374.66;;;21.84;nan
79461;BME280;68929;42.666;23.324;2023-08-06T04:38:37;93355.34;;;21.82;nan
79461;BME280;68929;42.666;23.324;2023-08-06T04:41:03;93371.19;;;21.92;nan
79461;BME280;68929;42.666;23.324;2023-08-06T04:43:29;93354.94;;;21.58;nan
79461;BME280;68929;42.666;23.324;2023-08-06T04:45:55;93332.13;;;21.46;nan
79461;BME280;68929;42.666;23.324;2023-08-06T04:48:21;93354.19;;;21.74;nan
79461;BME280;68929;42.666;23.324;2023-08-06T04:50:48;93338.25;;;21.86;nan
79461;BME280;68929;42.666;23.324;2023-08-06T04:53:14;93302.50;;;21.86;nan
79461;BME280;68929;42.666;23.324;2023-08-06T04:55:40;93317.00;;;21.68;nan
79461;BME280;68929;42.666;23.324;2023-08-06T04:58:06;93298.78;;;21.56;nan
79461;BME280;68929;42.666;23.324;2023-08-06T05:00:32;93310.47;;;21.52;nan
79461;BME280;68929;42.666;23.324;2023-08-06T05:02:59;93317.19;;;21.80;nan
79461;BME280;68929;42.666;23.324;2023-08-06T05:05:25;93319.50;;;21.56;nan
79461;BME280;68929;42.666;23.324;2023-08-06T05:07:50;93326.16;;;20.88;nan
79461;BME280;68929;42.666;23.324;2023-08-06T05:10:16;93303.66;;;20.67;nan
79461;BME280;68929;42.666;23.324;2023-08-06T05:12:42;93316.91;;;20.41;nan
79461;BME280;68929;42.666;23.324;2023-08-06T05:15:07;93331.88;;;20.34;nan
79461;BME280;68929;42.666;23.324;2023-08-06T05:17:33;93319.44;;;20.46;nan
79461;BME280;68929;42.666;23.324;2023-08-06T05:19:59;93328.91;;;20.66;nan
79461;BME280;68929;42.666;23.324;2023-08-06T05:22:25;93325.34;;;20.79;nan
79461;BME280;68929;42.666;23.324;2023-08-06T05:24:50;93320.78;;;20.57;nan
79461;BME280;68929;42.666;23.324;2023-08-06T05:27:16;93327.31;;;20.96;nan
79461;BME280;68929;42.666;23.324;2023-08-06T05:29:43;93306.13;;;20.86;nan
79461;BME280;68929;42.666;23.324;2023-08-06T05:32:09;93317.94;;;21.15;nan
79461;BME280;68929;42.666;23.324;2023-08-06T05:34:35;93310.16;;;21.05;nan
79461;BME280;68929;42.666;23.324;2023-08-06T05:37:00;93295.34;;;21.16;nan
79461;BME280;68929;42.666;23.324;2023-08-06T05:39:28;93292.41;;;21.35;nan
79461;BME280;68929;42.666;23.324;2023-08-06T05:41:54;93305.00;;;21.65;nan
79461;BME280;68929;42.666;23.324;2023-08-06T05:44:20;93292.19;;;21.14;nan
79461;BME280;68929;42.666;23.324;2023-08-06T05:46:46;93322.41;;;21.20;nan
79461;BME280;68929;42.666;23.324;2023-08-06T05:49:11;93315.44;;;21.19;nan
79461;BME280;68929;42.666;23.324;2023-08-06T05:51:38;93312.84;;;21.05;nan
79461;BME280;68929;42.666;23.324;2023-08-06T05:54:03;93326.72;;;21.29;nan
79461;BME280;68929;42.666;23.324;2023-08-06T05:56:29;93334.88;;;21.72;nan
79461;BME280;68929;42.666;23.324;2023-08-06T05:58:54;93282.06;;;21.11;nan
79461;BME280;68929;42.666;23.324;2023-08-06T06:01:20;93340.25;;;21.64;nan
79461;BME280;68929;42.666;23.324;2023-08-06T06:03:45;93332.47;;;21.54;nan
79461;BME280;68929;42.666;23.324;2023-08-06T06:06:14;93340.72;;;21.66;nan
79461;BME280;68929;42.666;23.324;2023-08-06T06:08:39;93336.72;;;21.46;nan
79461;BME280;68929;42.666;23.324;2023-08-06T06:11:04;93318.81;;;21.33;nan
79461;BME280;68929;42.666;23.324;2023-08-06T06:13:30;93332.38;;;21.76;nan
79461;BME280;68929;42.666;23.324;2023-08-06T06:15:55;93339.63;;;21.67;nan
79461;BME280;68929;42.666;23.324;2023-08-06T06:18:21;93368.19;;;22.02;nan
79461;BME280;68929;42.666;23.324;2023-08-06T06:20:47;93367.34;;;21.76;nan
79461;BME280;68929;42.666;23.324;2023-08-06T06:23:12;93353.56;;;21.77;nan
79461;BME280;68929;42.666;23.324;2023-08-06T06:25:50;93356.31;;;21.86;nan
79461;BME280;68929;42.666;23.324;2023-08-06T06:28:19;93373.75;;;22.31;nan
79461;BME280;68929;42.666;23.324;2023-08-06T06:30:44;93379.78;;;22.79;nan
79461;BME280;68929;42.666;23.324;2023-08-06T06:33:10;93390.41;;;22.76;nan
79461;BME280;68929;42.666;23.324;2023-08-06T06:35:36;93363.00;;;22.31;nan
79461;BME280;68929;42.666;23.324;2023-08-06T06:38:01;93403.50;;;22.00;nan
79461;BME280;68929;42.666;23.324;2023-08-06T06:40:30;93391.13;;;21.99;nan
79461;BME280;68929;42.666;23.324;2023-08-06T06:42:55;93397.50;;;22.12;nan
79461;BME280;68929;42.666;23.324;2023-08-06T06:45:20;93401.47;;;22.32;nan
79461;BME280;68929;42.666;23.324;2023-08-06T06:47:46;93405.38;;;22.00;nan
79461;BME280;68929;42.666;23.324;2023-08-06T06:50:11;93428.63;;;21.87;nan
79461;BME280;68929;42.666;23.324;2023-08-06T06:52:37;93410.13;;;22.03;nan
79461;BME280;68929;42.666;23.324;2023-08-06T06:55:03;93400.56;;;21.80;nan
79461;BME280;68929;42.666;23.324;2023-08-06T06:57:28;93398.44;;;21.60;nan
79461;BME280;68929;42.666;23.324;2023-08-06T06:59:53;93416.78;;;21.58;nan
79461;BME280;68929;42.666;23.324;2023-08-06T07:02:19;93440.25;;;22.22;nan
79461;BME280;68929;42.666;23.324;2023-08-06T07:04:44;93428.09;;;22.42;nan
79461;BME280;68929;42.666;23.324;2023-08-06T07:07:09;93453.47;;;22.83;nan
79461;BME280;68929;42.666;23.324;2023-08-06T07:09:35;93439.78;;;23.23;nan
79461;BME280;68929;42.666;23.324;2023-08-06T07:12:00;93449.47;;;23.24;nan
79461;BME280;68929;42.666;23.324;2023-08-06T07:14:27;93451.06;;;23.08;nan
79461;BME280;68929;42.666;23.324;2023-08-06T07:16:53;93458.66;;;23.14;nan
79461;BME280;68929;42.666;23.324;2023-08-06T07:19:18;93436.69;;;22.78;nan
79461;BME280;68929;42.666;23.324;2023-08-06T07:21:44;93456.16;;;22.66;nan
79461;BME280;68929;42.666;23.324;2023-08-06T07:24:09;93440.81;;;22.84;nan
79461;BME280;68929;42.666;23.324;2023-08-06T07:26:35;93452.34;;;23.01;nan
79461;BME280;68929;42.666;23.324;2023-08-06T07:29:00;93452.66;;;23.09;nan
79461;BME280;68929;42.666;23.324;2023-08-06T07:31:26;93432.53;;;23.15;nan
79461;BME280;68929;42.666;23.324;2023-08-06T07:33:51;93455.97;;;23.40;nan
79461;BME280;68929;42.666;23.324;2023-08-06T07:36:16;93441.53;;;23.19;nan
79461;BME280;68929;42.666;23.324;2023-08-06T07:38:42;93450.09;;;23.21;nan
79461;BME280;68929;42.666;23.324;2023-08-06T07:41:08;93459.47;;;23.15;nan
79461;BME280;68929;42.666;23.324;2023-08-06T07:43:34;93461.00;;;23.50;nan
79461;BME280;68929;42.666;23.324;2023-08-06T07:46:01;93432.31;;;23.28;nan
79461;BME280;68929;42.666;23.324;2023-08-06T07:48:27;93447.84;;;23.95;nan
79461;BME280;68929;42.666;23.324;2023-08-06T07:50:54;93453.16;;;24.12;nan
79461;BME280;68929;42.666;23.324;2023-08-06T07:53:23;93423.34;;;23.62;nan
79461;BME280;68929;42.666;23.324;2023-08-06T07:55:52;93440.56;;;24.45;nan
79461;BME280;68929;42.666;23.324;2023-08-06T07:58:19;93445.47;;;24.22;nan
79461;BME280;68929;42.666;23.324;2023-08-06T08:00:45;93440.72;;;23.90;nan
79461;BME280;68929;42.666;23.324;2023-08-06T08:03:14;93442.47;;;23.86;nan
79461;BME280;68929;42.666;23.324;2023-08-06T08:05:41;93427.69;;;23.92;nan
79461;BME280;68929;42.666;23.324;2023-08-06T08:08:06;93442.22;;;24.08;nan
79461;BME280;68929;42.666;23.324;2023-08-06T08:10:33;93440.03;;;24.31;nan
79461;BME280;68929;42.666;23.324;2023-08-06T08:12:58;93422.91;;;24.27;nan
79461;BME280;68929;42.666;23.324;2023-08-06T08:15:28;93433.63;;;24.15;nan
79461;BME280;68929;42.666;23.324;2023-08-06T08:17:54;93426.09;;;23.91;nan
79461;BME280;68929;42.666;23.324;2023-08-06T08:20:20;93436.97;;;24.03;nan
79461;BME280;68929;42.666;23.324;2023-08-06T08:22:45;93427.66;;;24.30;nan
79461;BME280;68929;42.666;23.324;2023-08-06T08:25:11;93450.63;;;24.15;nan
79461;BME280;68929;42.666;23.324;2023-08-06T08:27:36;93432.72;;;24.02;nan
79461;BME280;68929;42.666;23.324;2023-08-06T08:30:02;93424.72;;;24.14;nan
79461;BME280;68929;42.666;23.324;2023-08-06T08:32:27;93427.16;;;24.36;nan
79461;BME280;68929;42.666;23.324;2023-08-06T08:34:52;93426.06;;;24.29;nan
79461;BME280;68929;42.666;23.324;2023-08-06T08:37:18;93440.34;;;24.79;nan
79461;BME280;68929;42.666;23.324;2023-08-06T08:39:44;93430.69;;;24.78;nan
79461;BME280;68929;42.666;23.324;2023-08-06T08:42:10;93431.25;;;24.84;nan
79461;BME280;68929;42.666;23.324;2023-08-06T08:44:36;93422.72;;;24.52;nan
79461;BME280;68929;42.666;23.324;2023-08-06T08:47:06;93414.88;;;24.59;nan
79461;BME280;68929;42.666;23.324;2023-08-06T08:49:32;93429.28;;;24.22;nan
79461;BME280;68929;42.666;23.324;2023-08-06T08:52:01;93424.16;;;24.29;nan
79461;BME280;68929;42.666;23.324;2023-08-06T08:54:28;93427.97;;;24.28;nan
79461;BME280;68929;42.666;23.324;2023-08-06T08:56:56;93433.28;;;24.16;nan
79461;BME280;68929;42.666;23.324;2023-08-06T08:59:22;93425.91;;;24.05;nan
79461;BME280;68929;42.666;23.324;2023-08-06T09:01:48;93396.88;;;24.22;nan
79461;BME280;68929;42.666;23.324;2023-08-06T09:04:18;93419.63;;;24.63;nan
79461;BME280;68929;42.666;23.324;2023-08-06T09:06:46;93415.28;;;24.49;nan
79461;BME280;68929;42.666;23.324;2023-08-06T09:09:16;93410.47;;;24.34;nan
79461;BME280;68929;42.666;23.324;2023-08-06T09:11:43;93396.47;;;24.32;nan
79461;BME280;68929;42.666;23.324;2023-08-06T09:14:09;93399.50;;;24.10;nan
79461;BME280;68929;42.666;23.324;2023-08-06T09:16:35;93401.28;;;24.06;nan
79461;BME280;68929;42.666;23.324;2023-08-06T09:19:08;93415.25;;;24.29;nan
79461;BME280;68929;42.666;23.324;2023-08-06T09:21:37;93401.63;;;24.67;nan
79461;BME280;68929;42.666;23.324;2023-08-06T09:24:12;93371.34;;;24.82;nan
79461;BME280;68929;42.666;23.324;2023-08-06T09:26:39;93403.44;;;24.83;nan
79461;BME280;68929;42.666;23.324;2023-08-06T09:29:06;93397.38;;;24.66;nan
79461;BME280;68929;42.666;23.324;2023-08-06T09:31:43;93405.59;;;24.90;nan
79461;BME280;68929;42.666;23.324;2023-08-06T09:34:16;93398.31;;;25.35;nan
79461;BME280;68929;42.666;23.324;2023-08-06T09:37:02;93388.22;;;25.68;nan
79461;BME280;68929;42.666;23.324;2023-08-06T09:39:29;93393.53;;;25.77;nan
79461;BME280;68929;42.666;23.324;2023-08-06T09:41:57;93389.03;;;26.29;nan
79461;BME280;68929;42.666;23.324;2023-08-06T09:44:25;93378.28;;;26.33;nan
79461;BME280;68929;42.666;23.324;2023-08-06T09:46:58;93373.34;;;25.74;nan
79461;BME280;68929;42.666;23.324;2023-08-06T09:51:59;93391.16;;;25.51;nan
79461;BME280;68929;42.666;23.324;2023-08-06T09:54:26;93371.78;;;25.49;nan
79461;BME280;68929;42.666;23.324;2023-08-06T09:56:57;93375.75;;;25.76;nan
79461;BME280;68929;42.666;23.324;2023-08-06T09:59:23;93380.59;;;25.82;nan
79461;BME280;68929;42.666;23.324;2023-08-06T10:01:51;93394.22;;;25.86;nan
79461;BME280;68929;42.666;23.324;2023-08-06T10:04:16;93405.38;;;25.72;nan
79461;BME280;68929;42.666;23.324;2023-08-06T10:06:43;93388.00;;;25.49;nan
79461;BME280;68929;42.666;23.324;2023-08-06T10:09:11;93409.75;;;25.53;nan
79461;BME280;68929;42.666;23.324;2023-08-06T10:11:37;93409.50;;;25.46;nan
79461;BME280;68929;42.666;23.324;2023-08-06T10:14:15;93389.91;;;25.16;nan
79461;BME280;68929;42.666;23.324;2023-08-06T10:16:42;93410.88;;;25.19;nan
79461;BME280;68929;42.666;23.324;2023-08-06T10:19:09;93385.75;;;24.86;nan
79461;BME280;68929;42.666;23.324;2023-08-06T10:21:40;93406.84;;;25.25;nan
79461;BME280;68929;42.666;23.324;2023-08-06T10:24:09;93393.69;;;25.80;nan
79461;BME280;68929;42.666;23.324;2023-08-06T10:26:39;93384.44;;;26.05;nan
79461;BME280;68929;42.666;23.324;2023-08-06T10:29:36;93402.03;;;26.24;nan
79461;BME280;68929;42.666;23.324;2023-08-06T10:32:02;93392.19;;;25.59;nan
79461;BME280;68929;42.666;23.324;2023-08-06T10:34:54;93415.72;;;25.46;nan
79461;BME280;68929;42.666;23.324;2023-08-06T10:37:36;93402.31;;;25.17;nan
79461;BME280;68929;42.666;23.324;2023-08-06T10:40:02;93413.47;;;25.48;nan
79461;BME280;68929;42.666;23.324;2023-08-06T10:42:28;93410.47;;;25.29;nan
79461;BME280;68929;42.666;23.324;2023-08-06T10:47:39;93439.91;;;25.10;nan
79461;BME280;68929;42.666;23.324;2023-08-06T10:50:06;93428.47;;;24.72;nan
79461;BME280;68929;42.666;23.324;2023-08-06T10:52:32;93438.03;;;24.90;nan
79461;BME280;68929;42.666;23.324;2023-08-06T10:54:58;93430.13;;;24.85;nan
79461;BME280;68929;42.666;23.324;2023-08-06T10:57:24;93424.75;;;24.55;nan
79461;BME280;68929;42.666;23.324;2023-08-06T10:59:49;93439.28;;;24.72;nan
79461;BME280;68929;42.666;23.324;2023-08-06T11:02:15;93445.50;;;24.93;nan
79461;BME280;68929;42.666;23.324;2023-08-06T11:04:51;93429.94;;;24.90;nan
79461;BME280;68929;42.666;23.324;2023-08-06T11:07:16;93444.81;;;24.96;nan
79461;BME280;68929;42.666;23.324;2023-08-06T11:09:42;93453.00;;;24.87;nan
79461;BME280;68929;42.666;23.324;2023-08-06T11:12:10;93452.88;;;24.84;nan
79461;BME280;68929;42.666;23.324;2023-08-06T11:14:36;93432.19;;;24.88;nan
79461;BME280;68929;42.666;23.324;2023-08-06T11:17:02;93436.84;;;25.32;nan
79461;BME280;68929;42.666;23.324;2023-08-06T11:19:27;93446.31;;;25.26;nan
79461;BME280;68929;42.666;23.324;2023-08-06T11:21:54;93449.63;;;24.70;nan
79461;BME280;68929;42.666;23.324;2023-08-06T11:24:20;93495.63;;;23.94;nan
79461;BME280;68929;42.666;23.324;2023-08-06T11:26:45;93496.59;;;23.00;nan
79461;BME280;68929;42.666;23.324;2023-08-06T11:29:11;93495.19;;;22.21;nan
79461;BME280;68929;42.666;23.324;2023-08-06T11:31:36;93482.81;;;21.41;nan
79461;BME280;68929;42.666;23.324;2023-08-06T11:34:04;93487.72;;;21.39;nan
79461;BME280;68929;42.666;23.324;2023-08-06T11:36:31;93453.25;;;21.41;nan
79461;BME280;68929;42.666;23.324;2023-08-06T11:39:00;93439.72;;;21.64;nan
79461;BME280;68929;42.666;23.324;2023-08-06T11:41:28;93470.94;;;22.04;nan
79461;BME280;68929;42.666;23.324;2023-08-06T11:43:54;93457.03;;;22.19;nan
79461;BME280;68929;42.666;23.324;2023-08-06T11:46:19;93449.13;;;22.31;nan
79461;BME280;68929;42.666;23.324;2023-08-06T11:49:11;93462.19;;;22.80;nan
79461;BME280;68929;42.666;23.324;2023-08-06T11:51:37;93465.59;;;23.58;nan
79461;BME280;68929;42.666;23.324;2023-08-06T11:54:02;93460.03;;;25.21;nan
79461;BME280;68929;42.666;23.324;2023-08-06T11:56:28;93441.25;;;26.66;nan
79461;BME280;68929;42.666;23.324;2023-08-06T11:58:56;93440.78;;;27.43;nan
79461;BME280;68929;42.666;23.324;2023-08-06T12:01:23;93444.81;;;30.31;nan
79461;BME280;68929;42.666;23.324;2023-08-06T12:03:49;93448.88;;;31.92;nan
79461;BME280;68929;42.666;23.324;2023-08-06T12:06:15;93447.66;;;31.86;nan
79461;BME280;68929;42.666;23.324;2023-08-06T12:08:40;93442.97;;;33.39;nan
79461;BME280;68929;42.666;23.324;2023-08-06T12:11:07;93452.53;;;33.80;nan
79461;BME280;68929;42.666;23.324;2023-08-06T12:13:32;93453.81;;;34.89;nan
79461;BME280;68929;42.666;23.324;2023-08-06T12:16:00;93444.84;;;34.60;nan
79461;BME280;68929;42.666;23.324;2023-08-06T12:18:25;93430.34;;;33.17;nan
79461;BME280;68929;42.666;23.324;2023-08-06T12:20:50;93441.00;;;32.24;nan
79461;BME280;68929;42.666;23.324;2023-08-06T12:23:16;93425.16;;;30.44;nan
79461;BME280;68929;42.666;23.324;2023-08-06T12:25:41;93400.50;;;29.28;nan
79461;BME280;68929;42.666;23.324;2023-08-06T12:28:07;93443.44;;;28.99;nan
79461;BME280;68929;42.666;23.324;2023-08-06T12:30:34;93423.59;;;27.51;nan
79461;BME280;68929;42.666;23.324;2023-08-06T12:32:59;93451.69;;;27.31;nan
79461;BME280;68929;42.666;23.324;2023-08-06T12:35:25;93453.84;;;26.98;nan
79461;BME280;68929;42.666;23.324;2023-08-06T12:37:51;93448.94;;;26.64;nan
79461;BME280;68929;42.666;23.324;2023-08-06T12:40:19;93434.63;;;26.39;nan
79461;BME280;68929;42.666;23.324;2023-08-06T12:42:45;93443.31;;;26.21;nan
79461;BME280;68929;42.666;23.324;2023-08-06T12:45:10;93422.91;;;25.99;nan
79461;BME280;68929;42.666;23.324;2023-08-06T12:47:35;93415.09;;;25.85;nan
79461;BME280;68929;42.666;23.324;2023-08-06T12:50:01;93436.28;;;25.83;nan
79461;BME280;68929;42.666;23.324;2023-08-06T12:52:26;93426.81;;;25.89;nan
79461;BME280;68929;42.666;23.324;2023-08-06T12:54:51;93419.66;;;26.18;nan
79461;BME280;68929;42.666;23.324;2023-08-06T12:57:17;93428.97;;;26.44;nan
79461;BME280;68929;42.666;23.324;2023-08-06T12:59:42;93440.41;;;26.89;nan
79461;BME280;68929;42.666;23.324;2023-08-06T13:02:08;93418.75;;;27.17;nan
79461;BME280;68929;42.666;23.324;2023-08-06T13:04:33;93429.72;;;26.81;nan
79461;BME280;68929;42.666;23.324;2023-08-06T13:06:59;93435.63;;;26.59;nan
79461;BME280;68929;42.666;23.324;2023-08-06T13:09:24;93431.03;;;26.11;nan
79461;BME280;68929;42.666;23.324;2023-08-06T13:11:51;93440.94;;;26.07;nan
79461;BME280;68929;42.666;23.324;2023-08-06T13:14:17;93433.84;;;26.02;nan
79461;BME280;68929;42.666;23.324;2023-08-06T13:16:43;93446.50;;;26.10;nan